Calumet, Iowa
Current Conditions -  °F | °C
As of 3:15 PM on Saturday 22 Nov 2014 (Local Time) from KCKP Reporting Station
Haze Haze  
Wind Chill: 36°   Ceiling: Unl
Heat Index: 42°   Visibility: 4mi
Dew Point: 39°   Wind: 10mph
Humidity: 89%   Direction: 180°S
Pressure: 29.63"   Gusts: NA
Location:  42.95°N, 95.55°W
Report Text: KCKP 222115Z AUTO 18009KT 4SM BR CLR 06/04 A2963 RMK AO2 T00550038
Loading
Personal Weather Stations






























Interactive Weather Map New forecast layout! Learn more

10-Day Weather Forecast

Advertisements
Track Severe Weather on mobile